Terminal Aerodrome Forecast
Issued by NWS Birmingham, AL

Home | Current Version | Previous Version | Text Only | Print | Product List | Glossary On
Versions: 1 2 3 4 5 6 7 8 9 10 11 12 13 14 15 16
000
FTUS44 KBMX 202300 RRA
TAFBHM
TAF
KBHM 202343Z 2100/2124 01003KT P6SM SKC
     FM211100 04003KT P6SM BKN020
     FM211600 07005KT P6SM BKN035=

USA.gov is the U.S. government's official web portal to all federal, state and local government web resources and services.